Time,TemperatureF,DewpointF,PressureIn,WindDirection,WindDirectionDegrees,WindSpeedMPH,WindSpeedGustMPH,Humidity,HourlyPrecipIn,Conditions,Clouds,dailyrainin,SolarRadiationWatts/m^2,SoftwareType,DateUTC
2013-07-06 00:08:00,75.9,61.0,29.88,SE,139,1.0,7.0,61,0.00,,,0.00,0,weatherlink.com 1.10,2013-07-06 05:08:00,
2013-07-06 00:23:00,75.5,61.0,29.88,ESE,109,1.0,8.0,62,0.00,,,0.00,0,weatherlink.com 1.10,2013-07-06 05:23:00,
2013-07-06 00:38:00,75.4,61.0,29.87,South,178,2.0,6.0,62,0.00,,,0.00,0,weatherlink.com 1.10,2013-07-06 05:38:00,
2013-07-06 00:53:00,75.1,62.0,29.87,ESE,123,1.0,5.0,63,0.00,,,0.00,0,weatherlink.com 1.10,2013-07-06 05:53:00,
2013-07-06 01:08:00,74.9,61.0,29.87,SE,143,2.0,5.0,63,0.00,,,0.00,0,weatherlink.com 1.10,2013-07-06 06:08:00,
2013-07-06 01:23:00,74.6,62.0,29.88,SSE,163,0.0,4.0,64,0.00,,,0.00,0,weatherlink.com 1.10,2013-07-06 06:23:00,
2013-07-06 01:38:00,74.0,61.0,29.87,SE,140,3.0,4.0,65,0.00,,,0.00,0,weatherlink.com 1.10,2013-07-06 06:38:00,
2013-07-06 01:53:00,73.9,62.0,29.87,ESE,114,2.0,7.0,66,0.00,,,0.00,0,weatherlink.com 1.10,2013-07-06 06:53:00,
2013-07-06 02:08:00,73.5,61.0,29.87,ESE,112,0.0,5.0,66,0.00,,,0.00,0,weatherlink.com 1.10,2013-07-06 07:08:00,
2013-07-06 02:24:00,73.2,62.0,29.87,ESE,117,1.0,7.0,67,0.00,,,0.00,0,weatherlink.com 1.10,2013-07-06 07:24:00,
2013-07-06 02:38:00,73.0,62.0,29.87,ESE,111,1.0,5.0,68,0.00,,,0.00,0,weatherlink.com 1.10,2013-07-06 07:38:00,
2013-07-06 02:54:00,72.6,61.0,29.88,ESE,111,3.0,4.0,68,0.00,,,0.00,0,weatherlink.com 1.10,2013-07-06 07:54:00,
2013-07-06 03:09:00,72.2,61.0,29.88,ESE,111,1.0,5.0,69,0.00,,,0.00,0,weatherlink.com 1.10,2013-07-06 08:09:00,
2013-07-06 03:24:00,71.6,61.0,29.87,ESE,111,0.0,2.0,70,0.00,,,0.00,0,weatherlink.com 1.10,2013-07-06 08:24:00,
2013-07-06 03:39:00,71.3,61.0,29.87,ESE,112,2.0,4.0,71,0.00,,,0.00,0,weatherlink.com 1.10,2013-07-06 08:39:00,
2013-07-06 03:54:00,71.2,61.0,29.87,ESE,111,1.0,5.0,71,0.00,,,0.00,0,weatherlink.com 1.10,2013-07-06 08:54:00,
2013-07-06 04:09:00,70.8,61.0,29.87,ESE,110,1.0,4.0,71,0.00,,,0.00,0,weatherlink.com 1.10,2013-07-06 09:09:00,
2013-07-06 04:24:00,70.5,61.0,29.88,ESE,119,1.0,5.0,72,0.00,,,0.00,0,weatherlink.com 1.10,2013-07-06 09:24:00,
2013-07-06 04:39:00,70.2,61.0,29.88,ESE,115,3.0,5.0,73,0.00,,,0.00,0,weatherlink.com 1.10,2013-07-06 09:39:00,
2013-07-06 04:54:00,69.9,61.0,29.88,ESE,112,1.0,3.0,74,0.00,,,0.00,0,weatherlink.com 1.10,2013-07-06 09:54:00,
2013-07-06 05:09:00,69.7,61.0,29.88,ESE,111,1.0,7.0,75,0.00,,,0.00,0,weatherlink.com 1.10,2013-07-06 10:09:00,
2013-07-06 05:24:00,69.7,61.0,29.88,ESE,111,1.0,4.0,75,0.00,,,0.00,0,weatherlink.com 1.10,2013-07-06 10:24:00,
2013-07-06 05:39:00,69.6,61.0,29.89,ESE,111,1.0,3.0,75,0.00,,,0.00,0,weatherlink.com 1.10,2013-07-06 10:39:00,
2013-07-06 05:54:00,69.7,61.0,29.89,ESE,113,2.0,5.0,75,0.00,,,0.00,0,weatherlink.com 1.10,2013-07-06 10:54:00,
2013-07-06 06:09:00,69.6,61.0,29.90,ESE,114,3.0,4.0,75,0.00,,,0.00,11,weatherlink.com 1.10,2013-07-06 11:09:00,
2013-07-06 06:24:00,69.7,61.0,29.90,ESE,113,1.0,5.0,75,0.00,,,0.00,37,weatherlink.com 1.10,2013-07-06 11:24:00,
2013-07-06 06:39:00,69.9,62.0,29.90,ESE,111,1.0,4.0,75,0.00,,,0.00,39,weatherlink.com 1.10,2013-07-06 11:39:00,
2013-07-06 06:54:00,70.3,61.0,29.90,ESE,107,2.0,5.0,73,0.00,,,0.00,37,weatherlink.com 1.10,2013-07-06 11:54:00,
2013-07-06 07:09:00,70.7,62.0,29.91,ESE,108,1.0,4.0,73,0.00,,,0.00,70,weatherlink.com 1.10,2013-07-06 12:09:00,
2013-07-06 07:24:00,71.3,62.0,29.91,ESE,109,3.0,5.0,72,0.00,,,0.00,98,weatherlink.com 1.10,2013-07-06 12:24:00,
2013-07-06 07:39:00,71.6,62.0,29.91,ESE,112,0.0,3.0,71,0.00,,,0.00,65,weatherlink.com 1.10,2013-07-06 12:39:00,
2013-07-06 07:54:00,71.8,62.0,29.91,SSE,157,0.0,6.0,72,0.00,,,0.00,123,weatherlink.com 1.10,2013-07-06 12:54:00,
2013-07-06 08:09:00,72.9,63.0,29.90,East,99,0.0,8.0,70,0.00,,,0.00,239,weatherlink.com 1.10,2013-07-06 13:09:00,
2013-07-06 08:24:00,73.5,63.0,29.91,SSE,152,0.0,5.0,69,0.00,,,0.00,98,weatherlink.com 1.10,2013-07-06 13:24:00,
2013-07-06 08:39:00,73.7,62.0,29.92,SE,144,1.0,5.0,68,0.00,,,0.00,49,weatherlink.com 1.10,2013-07-06 13:39:00,
2013-07-06 08:54:00,73.4,63.0,29.94,ESE,117,3.0,5.0,70,0.00,,,0.00,47,weatherlink.com 1.10,2013-07-06 13:54:00,
2013-07-06 09:09:00,73.2,63.0,29.93,East,80,2.0,7.0,70,0.00,,,0.00,65,weatherlink.com 1.10,2013-07-06 14:09:00,
2013-07-06 09:25:00,73.4,63.0,29.92,East,88,5.0,8.0,70,0.00,,,0.00,81,weatherlink.com 1.10,2013-07-06 14:25:00,
2013-07-06 09:39:00,73.6,63.0,29.92,SE,130,2.0,8.0,70,0.00,,,0.00,70,weatherlink.com 1.10,2013-07-06 14:39:00,
2013-07-06 09:54:00,73.9,64.0,29.91,East,101,3.0,7.0,70,0.00,,,0.00,74,weatherlink.com 1.10,2013-07-06 14:54:00,
2013-07-06 10:09:00,74.6,64.0,29.90,South,190,4.0,8.0,69,0.00,,,0.00,93,weatherlink.com 1.10,2013-07-06 15:09:00,
2013-07-06 10:24:00,74.7,64.0,29.90,SSE,159,1.0,9.0,69,0.00,,,0.00,130,weatherlink.com 1.10,2013-07-06 15:24:00,
2013-07-06 10:39:00,75.7,64.0,29.89,SE,132,3.0,11.0,67,0.00,,,0.00,181,weatherlink.com 1.10,2013-07-06 15:39:00,
2013-07-06 10:54:00,76.6,64.0,29.88,South,188,1.0,10.0,66,0.00,,,0.00,218,weatherlink.com 1.10,2013-07-06 15:54:00,
2013-07-06 11:10:00,77.1,64.0,29.89,East,84,3.0,9.0,65,0.00,,,0.00,241,weatherlink.com 1.10,2013-07-06 16:10:00,
2013-07-06 11:40:00,81.6,66.0,29.88,SSW,193,3.0,15.0,59,0.00,,,0.00,775,weatherlink.com 1.10,2013-07-06 16:40:00,
2013-07-06 12:10:00,84.1,67.0,29.87,SSE,163,4.0,8.0,56,0.00,,,0.00,828,weatherlink.com 1.10,2013-07-06 17:10:00,
2013-07-06 12:25:00,85.5,68.0,29.86,SSW,202,7.0,8.0,56,0.00,,,0.00,846,weatherlink.com 1.10,2013-07-06 17:25:00,
2013-07-06 12:40:00,86.4,67.0,29.86,SSE,153,1.0,14.0,53,0.00,,,0.00,758,weatherlink.com 1.10,2013-07-06 17:40:00,
2013-07-06 12:55:00,87.2,67.0,29.85,SSE,166,5.0,12.0,52,0.00,,,0.00,693,weatherlink.com 1.10,2013-07-06 17:55:00,
2013-07-06 13:10:00,87.4,69.0,29.85,SE,125,1.0,10.0,55,0.00,,,0.00,693,weatherlink.com 1.10,2013-07-06 18:10:00,
2013-07-06 14:10:00,88.0,66.0,29.84,NNW,348,2.0,10.0,49,0.00,,,0.00,480,weatherlink.com 1.10,2013-07-06 19:10:00,
2013-07-06 14:40:00,87.9,66.0,29.85,SSW,211,2.0,10.0,49,0.00,,,0.00,446,weatherlink.com 1.10,2013-07-06 19:40:00,
2013-07-06 15:10:00,89.3,66.0,29.84,South,184,7.0,10.0,47,0.00,,,0.00,439,weatherlink.com 1.10,2013-07-06 20:10:00,
2013-07-06 15:25:00,87.3,66.0,29.84,SSW,194,2.0,11.0,49,0.00,,,0.00,362,weatherlink.com 1.10,2013-07-06 20:25:00,
2013-07-06 15:55:00,86.9,68.0,29.84,NE,55,3.0,8.0,53,0.00,,,0.00,315,weatherlink.com 1.10,2013-07-06 20:55:00,
2013-07-06 16:25:00,86.1,67.0,29.86,SSE,160,3.0,8.0,53,0.00,,,0.00,250,weatherlink.com 1.10,2013-07-06 21:25:00,
2013-07-06 16:40:00,85.1,67.0,29.86,ENE,72,2.0,8.0,55,0.00,,,0.00,190,weatherlink.com 1.10,2013-07-06 21:40:00,
2013-07-06 17:25:00,81.9,69.0,29.85,SSE,159,0.0,4.0,65,0.00,,,0.00,91,weatherlink.com 1.10,2013-07-06 22:25:00,
2013-07-06 19:10:00,79.2,68.0,29.85,SE,131,0.0,5.0,68,0.00,,,0.00,39,weatherlink.com 1.10,2013-07-07 00:10:00,
2013-07-06 19:40:00,78.8,67.0,29.84,SSE,153,1.0,7.0,67,0.00,,,0.00,14,weatherlink.com 1.10,2013-07-07 00:40:00,
2013-07-06 19:55:00,78.9,66.0,29.84,South,173,1.0,7.0,65,0.00,,,0.00,9,weatherlink.com 1.10,2013-07-07 00:55:00,
2013-07-06 20:25:00,78.8,65.0,29.85,East,96,1.0,9.0,63,0.00,,,0.00,0,weatherlink.com 1.10,2013-07-07 01:25:00,
2013-07-06 20:40:00,78.2,65.0,29.86,ESE,117,2.0,5.0,64,0.00,,,0.00,0,weatherlink.com 1.10,2013-07-07 01:40:00,
2013-07-06 20:55:00,78.0,65.0,29.85,ESE,105,2.0,7.0,64,0.00,,,0.00,0,weatherlink.com 1.10,2013-07-07 01:55:00,
2013-07-06 21:10:00,78.3,65.0,29.85,SSE,163,3.0,6.0,63,0.00,,,0.00,0,weatherlink.com 1.10,2013-07-07 02:10:00,
2013-07-06 21:25:00,78.2,65.0,29.86,South,188,2.0,9.0,63,0.00,,,0.00,0,weatherlink.com 1.10,2013-07-07 02:25:00,
2013-07-06 21:40:00,77.8,65.0,29.86,WSW,237,1.0,7.0,65,0.00,,,0.00,0,weatherlink.com 1.10,2013-07-07 02:40:00,
2013-07-06 21:55:00,77.4,65.0,29.86,East,84,0.0,6.0,66,0.00,,,0.00,0,weatherlink.com 1.10,2013-07-07 02:55:00,
2013-07-06 22:41:00,78.9,66.0,29.86,SSW,212,7.0,11.0,65,0.00,,,0.00,0,weatherlink.com 1.10,2013-07-07 03:41:00,
2013-07-06 23:11:00,78.8,66.0,29.86,South,189,6.0,12.0,65,0.00,,,0.00,0,weatherlink.com 1.10,2013-07-07 04:11:00,
2013-07-06 23:26:00,79.2,65.0,29.87,SSE,160,2.0,10.0,62,0.00,,,0.00,0,weatherlink.com 1.10,2013-07-07 04:26:00,
2013-07-06 23:41:00,78.7,65.0,29.88,SSW,210,2.0,6.0,64,0.00,,,0.00,0,weatherlink.com 1.10,2013-07-07 04:41:00,
2013-07-06 23:56:00,78.2,65.0,29.87,WSW,255,3.0,6.0,65,0.00,,,0.00,0,weatherlink.com 1.10,2013-07-07 04:56:00,